sensor_id;sensor_type;location;lat;lon;timestamp;P1;durP1;ratioP1;P2;durP2;ratioP2
11703;SDS011;5908;51.354;7.458;2023-04-27T00:00:12;11.30;;;6.23;;
11703;SDS011;5908;51.354;7.458;2023-04-27T00:02:39;11.53;;;6.73;;
11703;SDS011;5908;51.354;7.458;2023-04-27T00:05:06;10.73;;;6.90;;
11703;SDS011;5908;51.354;7.458;2023-04-27T00:07:36;13.80;;;7.80;;
11703;SDS011;5908;51.354;7.458;2023-04-27T00:10:03;18.17;;;10.17;;
11703;SDS011;5908;51.354;7.458;2023-04-27T00:12:30;12.10;;;7.50;;
11703;SDS011;5908;51.354;7.458;2023-04-27T00:14:57;17.20;;;10.33;;
11703;SDS011;5908;51.354;7.458;2023-04-27T00:17:24;11.80;;;7.97;;
11703;SDS011;5908;51.354;7.458;2023-04-27T00:19:51;12.03;;;6.13;;
11703;SDS011;5908;51.354;7.458;2023-04-27T00:22:18;10.10;;;6.93;;
11703;SDS011;5908;51.354;7.458;2023-04-27T00:24:46;9.43;;;6.37;;
11703;SDS011;5908;51.354;7.458;2023-04-27T00:27:13;12.30;;;7.80;;
11703;SDS011;5908;51.354;7.458;2023-04-27T00:29:40;12.93;;;7.07;;
11703;SDS011;5908;51.354;7.458;2023-04-27T00:32:07;11.57;;;7.13;;
11703;SDS011;5908;51.354;7.458;2023-04-27T00:34:34;11.07;;;7.57;;
11703;SDS011;5908;51.354;7.458;2023-04-27T00:37:01;12.73;;;7.07;;
11703;SDS011;5908;51.354;7.458;2023-04-27T00:39:29;13.20;;;8.13;;
11703;SDS011;5908;51.354;7.458;2023-04-27T00:41:57;10.90;;;7.47;;
11703;SDS011;5908;51.354;7.458;2023-04-27T00:44:25;13.37;;;7.37;;
11703;SDS011;5908;51.354;7.458;2023-04-27T00:46:53;12.67;;;7.00;;
11703;SDS011;5908;51.354;7.458;2023-04-27T00:49:20;10.03;;;7.40;;
11703;SDS011;5908;51.354;7.458;2023-04-27T00:51:47;11.53;;;6.73;;
11703;SDS011;5908;51.354;7.458;2023-04-27T00:54:14;12.40;;;7.07;;
11703;SDS011;5908;51.354;7.458;2023-04-27T00:56:43;14.37;;;7.77;;
11703;SDS011;5908;51.354;7.458;2023-04-27T00:59:14;11.83;;;6.93;;
11703;SDS011;5908;51.354;7.458;2023-04-27T01:01:41;12.03;;;7.53;;
11703;SDS011;5908;51.354;7.458;2023-04-27T01:04:08;13.67;;;8.30;;
11703;SDS011;5908;51.354;7.458;2023-04-27T01:06:34;10.90;;;6.70;;
11703;SDS011;5908;51.354;7.458;2023-04-27T01:09:01;9.23;;;6.77;;
11703;SDS011;5908;51.354;7.458;2023-04-27T01:11:29;10.80;;;6.70;;
11703;SDS011;5908;51.354;7.458;2023-04-27T01:13:56;14.17;;;8.10;;
11703;SDS011;5908;51.354;7.458;2023-04-27T01:16:24;11.03;;;6.40;;
11703;SDS011;5908;51.354;7.458;2023-04-27T01:18:51;12.63;;;6.60;;
11703;SDS011;5908;51.354;7.458;2023-04-27T01:21:17;10.43;;;6.70;;
11703;SDS011;5908;51.354;7.458;2023-04-27T01:23:45;15.20;;;7.73;;
11703;SDS011;5908;51.354;7.458;2023-04-27T01:26:12;11.37;;;7.20;;
11703;SDS011;5908;51.354;7.458;2023-04-27T01:28:40;13.30;;;6.63;;
11703;SDS011;5908;51.354;7.458;2023-04-27T01:31:07;9.37;;;6.70;;
11703;SDS011;5908;51.354;7.458;2023-04-27T01:33:35;11.87;;;6.80;;
11703;SDS011;5908;51.354;7.458;2023-04-27T01:36:02;9.90;;;6.60;;
11703;SDS011;5908;51.354;7.458;2023-04-27T01:38:29;10.00;;;6.40;;
11703;SDS011;5908;51.354;7.458;2023-04-27T01:40:58;8.90;;;6.10;;
11703;SDS011;5908;51.354;7.458;2023-04-27T01:43:26;10.70;;;6.10;;
11703;SDS011;5908;51.354;7.458;2023-04-27T01:45:52;9.90;;;6.13;;
11703;SDS011;5908;51.354;7.458;2023-04-27T01:48:19;9.90;;;6.40;;
11703;SDS011;5908;51.354;7.458;2023-04-27T01:50:46;9.67;;;6.57;;
11703;SDS011;5908;51.354;7.458;2023-04-27T01:53:13;9.83;;;6.70;;
11703;SDS011;5908;51.354;7.458;2023-04-27T01:55:39;12.00;;;6.57;;
11703;SDS011;5908;51.354;7.458;2023-04-27T01:58:07;13.00;;;6.90;;
11703;SDS011;5908;51.354;7.458;2023-04-27T02:00:34;13.30;;;6.73;;
11703;SDS011;5908;51.354;7.458;2023-04-27T02:03:01;15.70;;;7.97;;
11703;SDS011;5908;51.354;7.458;2023-04-27T02:05:28;10.60;;;7.13;;
11703;SDS011;5908;51.354;7.458;2023-04-27T02:07:55;9.60;;;6.83;;
11703;SDS011;5908;51.354;7.458;2023-04-27T02:10:21;12.73;;;7.00;;
11703;SDS011;5908;51.354;7.458;2023-04-27T02:12:48;12.77;;;7.27;;
11703;SDS011;5908;51.354;7.458;2023-04-27T02:15:16;15.73;;;7.70;;
11703;SDS011;5908;51.354;7.458;2023-04-27T02:17:43;9.93;;;7.03;;
11703;SDS011;5908;51.354;7.458;2023-04-27T02:20:11;11.70;;;6.80;;
11703;SDS011;5908;51.354;7.458;2023-04-27T02:22:39;13.60;;;7.33;;
11703;SDS011;5908;51.354;7.458;2023-04-27T02:25:07;11.97;;;7.00;;
11703;SDS011;5908;51.354;7.458;2023-04-27T02:27:35;13.90;;;8.07;;
11703;SDS011;5908;51.354;7.458;2023-04-27T02:30:03;14.13;;;6.80;;
11703;SDS011;5908;51.354;7.458;2023-04-27T02:32:32;11.33;;;6.73;;
11703;SDS011;5908;51.354;7.458;2023-04-27T02:34:59;11.07;;;6.80;;
11703;SDS011;5908;51.354;7.458;2023-04-27T02:37:26;13.60;;;7.27;;
11703;SDS011;5908;51.354;7.458;2023-04-27T02:39:53;9.90;;;6.93;;
11703;SDS011;5908;51.354;7.458;2023-04-27T02:42:20;14.07;;;6.87;;
11703;SDS011;5908;51.354;7.458;2023-04-27T02:44:47;10.90;;;6.43;;
11703;SDS011;5908;51.354;7.458;2023-04-27T02:47:14;18.77;;;10.60;;
11703;SDS011;5908;51.354;7.458;2023-04-27T02:49:42;12.33;;;7.43;;
11703;SDS011;5908;51.354;7.458;2023-04-27T02:52:09;13.77;;;8.20;;
11703;SDS011;5908;51.354;7.458;2023-04-27T02:54:35;12.93;;;6.80;;
11703;SDS011;5908;51.354;7.458;2023-04-27T02:57:03;14.20;;;7.93;;
11703;SDS011;5908;51.354;7.458;2023-04-27T02:59:30;16.33;;;10.03;;
11703;SDS011;5908;51.354;7.458;2023-04-27T03:01:57;14.53;;;7.97;;
11703;SDS011;5908;51.354;7.458;2023-04-27T03:04:24;13.73;;;8.80;;
11703;SDS011;5908;51.354;7.458;2023-04-27T03:06:53;12.77;;;7.77;;
11703;SDS011;5908;51.354;7.458;2023-04-27T03:09:19;15.37;;;8.93;;
11703;SDS011;5908;51.354;7.458;2023-04-27T03:11:46;14.37;;;7.53;;
11703;SDS011;5908;51.354;7.458;2023-04-27T03:14:13;10.90;;;7.00;;
11703;SDS011;5908;51.354;7.458;2023-04-27T03:16:39;14.37;;;8.07;;
11703;SDS011;5908;51.354;7.458;2023-04-27T03:19:06;13.00;;;7.13;;
11703;SDS011;5908;51.354;7.458;2023-04-27T03:21:33;11.57;;;6.93;;
11703;SDS011;5908;51.354;7.458;2023-04-27T03:24:01;12.33;;;7.10;;
11703;SDS011;5908;51.354;7.458;2023-04-27T03:26:28;11.50;;;6.97;;
11703;SDS011;5908;51.354;7.458;2023-04-27T03:28:55;13.17;;;7.90;;
11703;SDS011;5908;51.354;7.458;2023-04-27T03:31:21;10.80;;;7.60;;
11703;SDS011;5908;51.354;7.458;2023-04-27T03:33:48;13.03;;;7.13;;
11703;SDS011;5908;51.354;7.458;2023-04-27T03:36:15;13.83;;;8.17;;
11703;SDS011;5908;51.354;7.458;2023-04-27T03:38:41;13.13;;;8.07;;
11703;SDS011;5908;51.354;7.458;2023-04-27T03:41:10;13.60;;;7.83;;
11703;SDS011;5908;51.354;7.458;2023-04-27T03:43:37;13.60;;;7.77;;
11703;SDS011;5908;51.354;7.458;2023-04-27T03:46:04;13.67;;;8.23;;
11703;SDS011;5908;51.354;7.458;2023-04-27T03:48:30;17.47;;;9.80;;
11703;SDS011;5908;51.354;7.458;2023-04-27T03:50:58;15.40;;;8.37;;
11703;SDS011;5908;51.354;7.458;2023-04-27T03:53:25;14.60;;;8.67;;
11703;SDS011;5908;51.354;7.458;2023-04-27T03:55:52;20.83;;;9.40;;
11703;SDS011;5908;51.354;7.458;2023-04-27T03:58:20;12.10;;;7.47;;
11703;SDS011;5908;51.354;7.458;2023-04-27T04:00:47;13.80;;;8.97;;
11703;SDS011;5908;51.354;7.458;2023-04-27T04:03:13;15.40;;;8.40;;
11703;SDS011;5908;51.354;7.458;2023-04-27T04:05:40;15.40;;;8.30;;
11703;SDS011;5908;51.354;7.458;2023-04-27T04:08:07;25.53;;;10.27;;
11703;SDS011;5908;51.354;7.458;2023-04-27T04:10:33;14.10;;;9.27;;
11703;SDS011;5908;51.354;7.458;2023-04-27T04:13:00;18.47;;;8.73;;
11703;SDS011;5908;51.354;7.458;2023-04-27T04:15:28;16.37;;;9.73;;
11703;SDS011;5908;51.354;7.458;2023-04-27T04:17:55;14.73;;;9.23;;
11703;SDS011;5908;51.354;7.458;2023-04-27T04:20:22;22.53;;;11.57;;
11703;SDS011;5908;51.354;7.458;2023-04-27T04:22:48;16.23;;;9.73;;
11703;SDS011;5908;51.354;7.458;2023-04-27T04:25:15;28.27;;;14.80;;
11703;SDS011;5908;51.354;7.458;2023-04-27T04:27:42;20.93;;;11.80;;
11703;SDS011;5908;51.354;7.458;2023-04-27T04:30:09;38.43;;;24.00;;
11703;SDS011;5908;51.354;7.458;2023-04-27T04:32:38;28.43;;;16.93;;
11703;SDS011;5908;51.354;7.458;2023-04-27T04:35:05;23.37;;;14.37;;
11703;SDS011;5908;51.354;7.458;2023-04-27T04:37:32;18.13;;;11.73;;
11703;SDS011;5908;51.354;7.458;2023-04-27T04:40:02;22.03;;;12.50;;
11703;SDS011;5908;51.354;7.458;2023-04-27T04:42:33;18.10;;;10.60;;
11703;SDS011;5908;51.354;7.458;2023-04-27T04:44:59;19.67;;;9.97;;
11703;SDS011;5908;51.354;7.458;2023-04-27T04:47:27;16.63;;;9.77;;
11703;SDS011;5908;51.354;7.458;2023-04-27T04:49:57;22.63;;;13.13;;
11703;SDS011;5908;51.354;7.458;2023-04-27T04:52:25;18.07;;;10.60;;
11703;SDS011;5908;51.354;7.458;2023-04-27T04:54:51;14.60;;;9.07;;
11703;SDS011;5908;51.354;7.458;2023-04-27T04:57:18;17.63;;;9.37;;
11703;SDS011;5908;51.354;7.458;2023-04-27T04:59:45;15.20;;;9.50;;
11703;SDS011;5908;51.354;7.458;2023-04-27T05:02:11;20.30;;;10.17;;
11703;SDS011;5908;51.354;7.458;2023-04-27T05:04:38;13.90;;;9.43;;
11703;SDS011;5908;51.354;7.458;2023-04-27T05:07:06;15.43;;;9.37;;
11703;SDS011;5908;51.354;7.458;2023-04-27T05:09:35;17.90;;;9.60;;
11703;SDS011;5908;51.354;7.458;2023-04-27T05:12:01;21.20;;;10.37;;
11703;SDS011;5908;51.354;7.458;2023-04-27T05:14:28;18.13;;;10.67;;
11703;SDS011;5908;51.354;7.458;2023-04-27T05:16:55;20.93;;;11.80;;
11703;SDS011;5908;51.354;7.458;2023-04-27T05:19:22;20.67;;;11.90;;
11703;SDS011;5908;51.354;7.458;2023-04-27T05:21:49;18.17;;;11.93;;
11703;SDS011;5908;51.354;7.458;2023-04-27T05:24:17;20.40;;;11.47;;
11703;SDS011;5908;51.354;7.458;2023-04-27T05:26:44;19.80;;;11.57;;
11703;SDS011;5908;51.354;7.458;2023-04-27T05:29:10;21.03;;;12.30;;
11703;SDS011;5908;51.354;7.458;2023-04-27T05:31:37;24.10;;;12.03;;
11703;SDS011;5908;51.354;7.458;2023-04-27T05:34:04;19.50;;;12.07;;
11703;SDS011;5908;51.354;7.458;2023-04-27T05:36:32;17.17;;;11.60;;
11703;SDS011;5908;51.354;7.458;2023-04-27T05:38:59;22.13;;;11.57;;
11703;SDS011;5908;51.354;7.458;2023-04-27T05:41:27;16.27;;;9.73;;
11703;SDS011;5908;51.354;7.458;2023-04-27T05:43:55;14.73;;;8.87;;
11703;SDS011;5908;51.354;7.458;2023-04-27T05:46:22;14.97;;;8.90;;
11703;SDS011;5908;51.354;7.458;2023-04-27T05:48:48;16.43;;;9.80;;
11703;SDS011;5908;51.354;7.458;2023-04-27T05:51:15;21.00;;;10.03;;
11703;SDS011;5908;51.354;7.458;2023-04-27T05:53:42;19.40;;;10.03;;
11703;SDS011;5908;51.354;7.458;2023-04-27T05:56:08;16.63;;;9.57;;
11703;SDS011;5908;51.354;7.458;2023-04-27T05:58:38;17.13;;;10.10;;
11703;SDS011;5908;51.354;7.458;2023-04-27T06:01:05;17.90;;;9.50;;
11703;SDS011;5908;51.354;7.458;2023-04-27T06:03:31;18.13;;;9.40;;
11703;SDS011;5908;51.354;7.458;2023-04-27T06:05:59;19.70;;;9.63;;
11703;SDS011;5908;51.354;7.458;2023-04-27T06:08:26;15.33;;;9.57;;
11703;SDS011;5908;51.354;7.458;2023-04-27T06:10:54;17.00;;;9.50;;
11703;SDS011;5908;51.354;7.458;2023-04-27T06:13:21;20.50;;;9.93;;
11703;SDS011;5908;51.354;7.458;2023-04-27T06:15:49;17.80;;;9.93;;
11703;SDS011;5908;51.354;7.458;2023-04-27T06:18:16;14.97;;;9.40;;
11703;SDS011;5908;51.354;7.458;2023-04-27T06:20:42;17.23;;;9.60;;
11703;SDS011;5908;51.354;7.458;2023-04-27T06:23:09;19.83;;;9.93;;
11703;SDS011;5908;51.354;7.458;2023-04-27T06:25:36;16.43;;;9.70;;
11703;SDS011;5908;51.354;7.458;2023-04-27T06:28:04;19.77;;;10.23;;
11703;SDS011;5908;51.354;7.458;2023-04-27T06:30:31;18.07;;;9.83;;
11703;SDS011;5908;51.354;7.458;2023-04-27T06:32:59;21.30;;;9.83;;
11703;SDS011;5908;51.354;7.458;2023-04-27T06:35:26;15.10;;;9.07;;
11703;SDS011;5908;51.354;7.458;2023-04-27T06:37:53;14.33;;;8.43;;
11703;SDS011;5908;51.354;7.458;2023-04-27T06:40:22;18.37;;;8.47;;
11703;SDS011;5908;51.354;7.458;2023-04-27T06:42:50;18.53;;;8.13;;
11703;SDS011;5908;51.354;7.458;2023-04-27T06:45:17;13.77;;;8.40;;
11703;SDS011;5908;51.354;7.458;2023-04-27T06:47:44;13.50;;;7.77;;
11703;SDS011;5908;51.354;7.458;2023-04-27T06:50:12;15.13;;;7.97;;
11703;SDS011;5908;51.354;7.458;2023-04-27T06:52:39;15.50;;;7.57;;
11703;SDS011;5908;51.354;7.458;2023-04-27T06:55:06;14.10;;;7.80;;
11703;SDS011;5908;51.354;7.458;2023-04-27T06:57:33;12.90;;;6.90;;
11703;SDS011;5908;51.354;7.458;2023-04-27T07:00:00;12.07;;;7.30;;
11703;SDS011;5908;51.354;7.458;2023-04-27T07:02:27;11.63;;;6.53;;
11703;SDS011;5908;51.354;7.458;2023-04-27T07:04:54;13.27;;;6.37;;
11703;SDS011;5908;51.354;7.458;2023-04-27T07:07:22;14.23;;;7.10;;
11703;SDS011;5908;51.354;7.458;2023-04-27T07:09:49;13.70;;;6.97;;
11703;SDS011;5908;51.354;7.458;2023-04-27T07:12:16;11.37;;;6.57;;
11703;SDS011;5908;51.354;7.458;2023-04-27T07:14:42;11.30;;;6.47;;
11703;SDS011;5908;51.354;7.458;2023-04-27T07:17:09;15.37;;;8.47;;
11703;SDS011;5908;51.354;7.458;2023-04-27T07:19:36;10.07;;;6.50;;
11703;SDS011;5908;51.354;7.458;2023-04-27T07:22:02;11.13;;;6.30;;
11703;SDS011;5908;51.354;7.458;2023-04-27T07:24:30;12.73;;;7.20;;
11703;SDS011;5908;51.354;7.458;2023-04-27T07:26:57;12.63;;;6.80;;
11703;SDS011;5908;51.354;7.458;2023-04-27T07:29:26;18.77;;;12.70;;
11703;SDS011;5908;51.354;7.458;2023-04-27T07:31:53;12.50;;;6.70;;
11703;SDS011;5908;51.354;7.458;2023-04-27T07:34:20;11.73;;;7.27;;
11703;SDS011;5908;51.354;7.458;2023-04-27T07:36:47;11.70;;;6.83;;
11703;SDS011;5908;51.354;7.458;2023-04-27T07:39:14;11.07;;;6.30;;
11703;SDS011;5908;51.354;7.458;2023-04-27T07:41:42;10.67;;;6.50;;
11703;SDS011;5908;51.354;7.458;2023-04-27T07:44:08;10.67;;;6.63;;
11703;SDS011;5908;51.354;7.458;2023-04-27T07:46:36;9.80;;;5.70;;
11703;SDS011;5908;51.354;7.458;2023-04-27T07:49:03;17.83;;;10.20;;
11703;SDS011;5908;51.354;7.458;2023-04-27T07:51:29;30.33;;;16.80;;
11703;SDS011;5908;51.354;7.458;2023-04-27T07:53:58;13.97;;;6.03;;
11703;SDS011;5908;51.354;7.458;2023-04-27T07:56:26;10.57;;;5.87;;
11703;SDS011;5908;51.354;7.458;2023-04-27T07:58:54;12.10;;;6.00;;
11703;SDS011;5908;51.354;7.458;2023-04-27T08:01:21;20.83;;;12.40;;
11703;SDS011;5908;51.354;7.458;2023-04-27T08:03:47;13.30;;;7.33;;
11703;SDS011;5908;51.354;7.458;2023-04-27T08:06:14;14.57;;;8.90;;
11703;SDS011;5908;51.354;7.458;2023-04-27T08:08:41;18.30;;;11.67;;
11703;SDS011;5908;51.354;7.458;2023-04-27T08:11:08;11.17;;;6.37;;
11703;SDS011;5908;51.354;7.458;2023-04-27T08:13:34;11.40;;;6.47;;
11703;SDS011;5908;51.354;7.458;2023-04-27T08:16:03;10.43;;;4.90;;
11703;SDS011;5908;51.354;7.458;2023-04-27T08:18:30;8.90;;;4.90;;
11703;SDS011;5908;51.354;7.458;2023-04-27T08:20:57;12.67;;;5.77;;
11703;SDS011;5908;51.354;7.458;2023-04-27T08:23:25;9.83;;;5.20;;
11703;SDS011;5908;51.354;7.458;2023-04-27T08:25:53;9.53;;;5.20;;
11703;SDS011;5908;51.354;7.458;2023-04-27T08:28:19;8.60;;;4.90;;
11703;SDS011;5908;51.354;7.458;2023-04-27T08:30:47;8.07;;;4.80;;
11703;SDS011;5908;51.354;7.458;2023-04-27T08:33:15;10.30;;;6.17;;
11703;SDS011;5908;51.354;7.458;2023-04-27T08:35:41;8.27;;;4.43;;
11703;SDS011;5908;51.354;7.458;2023-04-27T08:38:08;9.03;;;4.80;;
11703;SDS011;5908;51.354;7.458;2023-04-27T08:40:35;8.93;;;5.03;;
11703;SDS011;5908;51.354;7.458;2023-04-27T08:43:06;9.47;;;5.07;;
11703;SDS011;5908;51.354;7.458;2023-04-27T08:45:33;6.07;;;4.97;;
11703;SDS011;5908;51.354;7.458;2023-04-27T08:48:00;7.43;;;4.80;;
11703;SDS011;5908;51.354;7.458;2023-04-27T08:50:28;7.40;;;4.90;;
11703;SDS011;5908;51.354;7.458;2023-04-27T08:52:55;8.43;;;4.70;;
11703;SDS011;5908;51.354;7.458;2023-04-27T08:55:22;6.50;;;4.47;;
11703;SDS011;5908;51.354;7.458;2023-04-27T08:57:55;7.77;;;5.30;;
11703;SDS011;5908;51.354;7.458;2023-04-27T09:00:25;7.67;;;4.17;;
11703;SDS011;5908;51.354;7.458;2023-04-27T09:02:52;6.63;;;4.70;;
11703;SDS011;5908;51.354;7.458;2023-04-27T09:05:19;7.37;;;3.90;;
11703;SDS011;5908;51.354;7.458;2023-04-27T09:08:01;6.33;;;4.37;;
11703;SDS011;5908;51.354;7.458;2023-04-27T09:10:42;7.70;;;4.10;;
11703;SDS011;5908;51.354;7.458;2023-04-27T09:13:09;8.10;;;4.87;;
11703;SDS011;5908;51.354;7.458;2023-04-27T09:15:40;10.63;;;6.97;;
11703;SDS011;5908;51.354;7.458;2023-04-27T09:18:10;9.30;;;4.80;;
11703;SDS011;5908;51.354;7.458;2023-04-27T09:20:43;6.53;;;4.73;;
11703;SDS011;5908;51.354;7.458;2023-04-27T09:23:14;7.17;;;4.40;;
11703;SDS011;5908;51.354;7.458;2023-04-27T09:25:52;7.00;;;5.10;;
11703;SDS011;5908;51.354;7.458;2023-04-27T09:28:18;6.30;;;3.87;;
11703;SDS011;5908;51.354;7.458;2023-04-27T09:30:50;6.33;;;4.50;;
11703;SDS011;5908;51.354;7.458;2023-04-27T09:33:21;8.13;;;4.73;;
11703;SDS011;5908;51.354;7.458;2023-04-27T09:35:48;6.93;;;4.40;;
11703;SDS011;5908;51.354;7.458;2023-04-27T09:38:17;6.13;;;4.27;;
11703;SDS011;5908;51.354;7.458;2023-04-27T09:40:45;8.50;;;4.73;;
11703;SDS011;5908;51.354;7.458;2023-04-27T09:43:12;9.40;;;5.30;;
11703;SDS011;5908;51.354;7.458;2023-04-27T09:45:39;6.93;;;4.33;;
11703;SDS011;5908;51.354;7.458;2023-04-27T09:48:07;7.03;;;4.43;;
11703;SDS011;5908;51.354;7.458;2023-04-27T09:50:35;7.73;;;4.30;;
11703;SDS011;5908;51.354;7.458;2023-04-27T09:53:04;6.00;;;4.33;;
11703;SDS011;5908;51.354;7.458;2023-04-27T09:55:35;9.57;;;4.80;;
11703;SDS011;5908;51.354;7.458;2023-04-27T09:58:12;7.77;;;4.53;;
11703;SDS011;5908;51.354;7.458;2023-04-27T10:00:55;8.03;;;4.70;;
11703;SDS011;5908;51.354;7.458;2023-04-27T10:03:29;5.97;;;4.60;;
11703;SDS011;5908;51.354;7.458;2023-04-27T10:06:15;8.60;;;5.20;;
11703;SDS011;5908;51.354;7.458;2023-04-27T10:09:05;7.40;;;4.30;;
11703;SDS011;5908;51.354;7.458;2023-04-27T10:11:38;7.63;;;4.80;;
11703;SDS011;5908;51.354;7.458;2023-04-27T10:14:06;7.87;;;5.27;;
11703;SDS011;5908;51.354;7.458;2023-04-27T10:16:43;8.23;;;4.43;;
11703;SDS011;5908;51.354;7.458;2023-04-27T10:19:11;9.87;;;4.30;;
11703;SDS011;5908;51.354;7.458;2023-04-27T10:21:49;8.00;;;5.13;;
11703;SDS011;5908;51.354;7.458;2023-04-27T10:24:17;8.57;;;5.20;;
11703;SDS011;5908;51.354;7.458;2023-04-27T10:26:46;9.30;;;6.57;;
11703;SDS011;5908;51.354;7.458;2023-04-27T10:29:13;6.63;;;4.60;;
11703;SDS011;5908;51.354;7.458;2023-04-27T10:31:42;8.37;;;4.77;;
11703;SDS011;5908;51.354;7.458;2023-04-27T10:34:10;8.33;;;5.00;;
11703;SDS011;5908;51.354;7.458;2023-04-27T10:36:41;7.33;;;4.40;;
11703;SDS011;5908;51.354;7.458;2023-04-27T10:39:15;8.57;;;4.73;;
11703;SDS011;5908;51.354;7.458;2023-04-27T10:41:50;7.35;;;4.72;;
11703;SDS011;5908;51.354;7.458;2023-04-27T10:44:19;7.60;;;5.00;;
11703;SDS011;5908;51.354;7.458;2023-04-27T10:46:50;7.87;;;4.80;;
11703;SDS011;5908;51.354;7.458;2023-04-27T10:49:17;7.10;;;5.10;;
11703;SDS011;5908;51.354;7.458;2023-04-27T10:51:45;10.13;;;5.50;;
11703;SDS011;5908;51.354;7.458;2023-04-27T10:54:12;6.65;;;5.20;;
11703;SDS011;5908;51.354;7.458;2023-04-27T10:56:39;7.97;;;5.80;;
11703;SDS011;5908;51.354;7.458;2023-04-27T10:59:07;8.07;;;5.18;;
11703;SDS011;5908;51.354;7.458;2023-04-27T11:01:34;7.83;;;5.50;;
11703;SDS011;5908;51.354;7.458;2023-04-27T11:04:01;5.82;;;4.57;;
11703;SDS011;5908;51.354;7.458;2023-04-27T11:06:29;9.13;;;4.77;;
11703;SDS011;5908;51.354;7.458;2023-04-27T11:08:57;5.90;;;4.87;;
11703;SDS011;5908;51.354;7.458;2023-04-27T11:11:24;8.40;;;4.88;;
11703;SDS011;5908;51.354;7.458;2023-04-27T11:13:52;14.20;;;9.52;;
11703;SDS011;5908;51.354;7.458;2023-04-27T11:16:21;21.00;;;13.88;;
11703;SDS011;5908;51.354;7.458;2023-04-27T11:18:48;9.90;;;5.60;;
11703;SDS011;5908;51.354;7.458;2023-04-27T11:21:15;17.48;;;11.02;;
11703;SDS011;5908;51.354;7.458;2023-04-27T11:23:44;8.68;;;5.68;;
11703;SDS011;5908;51.354;7.458;2023-04-27T11:26:12;7.60;;;5.30;;
11703;SDS011;5908;51.354;7.458;2023-04-27T11:28:40;11.15;;;7.97;;
11703;SDS011;5908;51.354;7.458;2023-04-27T11:31:07;11.65;;;7.97;;
11703;SDS011;5908;51.354;7.458;2023-04-27T11:33:36;9.88;;;5.43;;
11703;SDS011;5908;51.354;7.458;2023-04-27T11:36:14;6.93;;;5.05;;
11703;SDS011;5908;51.354;7.458;2023-04-27T11:38:42;8.02;;;5.43;;
11703;SDS011;5908;51.354;7.458;2023-04-27T11:41:08;7.80;;;5.20;;
11703;SDS011;5908;51.354;7.458;2023-04-27T11:43:35;8.10;;;5.60;;
11703;SDS011;5908;51.354;7.458;2023-04-27T11:46:06;12.10;;;5.57;;
11703;SDS011;5908;51.354;7.458;2023-04-27T11:48:35;8.80;;;5.55;;
11703;SDS011;5908;51.354;7.458;2023-04-27T11:51:04;7.07;;;5.45;;
11703;SDS011;5908;51.354;7.458;2023-04-27T11:53:32;6.47;;;5.05;;
11703;SDS011;5908;51.354;7.458;2023-04-27T11:56:01;7.85;;;5.18;;
11703;SDS011;5908;51.354;7.458;2023-04-27T11:58:29;7.22;;;5.40;;
11703;SDS011;5908;51.354;7.458;2023-04-27T12:00:58;9.43;;;7.45;;
11703;SDS011;5908;51.354;7.458;2023-04-27T12:03:26;10.02;;;5.55;;
11703;SDS011;5908;51.354;7.458;2023-04-27T12:05:56;9.60;;;5.72;;
11703;SDS011;5908;51.354;7.458;2023-04-27T12:08:23;8.18;;;5.05;;
11703;SDS011;5908;51.354;7.458;2023-04-27T12:10:50;8.65;;;5.15;;
11703;SDS011;5908;51.354;7.458;2023-04-27T12:13:17;8.25;;;6.25;;
11703;SDS011;5908;51.354;7.458;2023-04-27T12:15:44;11.30;;;7.78;;
11703;SDS011;5908;51.354;7.458;2023-04-27T12:18:10;10.25;;;5.70;;
11703;SDS011;5908;51.354;7.458;2023-04-27T12:20:37;5.88;;;5.15;;
11703;SDS011;5908;51.354;7.458;2023-04-27T12:23:06;9.23;;;5.38;;
11703;SDS011;5908;51.354;7.458;2023-04-27T12:25:32;9.10;;;5.30;;
11703;SDS011;5908;51.354;7.458;2023-04-27T12:28:00;6.70;;;5.63;;
11703;SDS011;5908;51.354;7.458;2023-04-27T12:30:27;6.88;;;5.13;;
11703;SDS011;5908;51.354;7.458;2023-04-27T12:32:54;8.52;;;5.45;;
11703;SDS011;5908;51.354;7.458;2023-04-27T12:35:23;10.07;;;5.55;;
11703;SDS011;5908;51.354;7.458;2023-04-27T12:37:50;9.82;;;5.80;;
11703;SDS011;5908;51.354;7.458;2023-04-27T12:40:18;7.53;;;5.43;;
11703;SDS011;5908;51.354;7.458;2023-04-27T12:42:47;8.63;;;5.60;;
11703;SDS011;5908;51.354;7.458;2023-04-27T12:45:14;7.53;;;5.40;;
11703;SDS011;5908;51.354;7.458;2023-04-27T12:47:41;6.85;;;5.40;;
11703;SDS011;5908;51.354;7.458;2023-04-27T12:50:08;10.07;;;5.38;;
11703;SDS011;5908;51.354;7.458;2023-04-27T12:52:35;8.10;;;5.47;;
11703;SDS011;5908;51.354;7.458;2023-04-27T12:55:02;9.68;;;6.85;;
11703;SDS011;5908;51.354;7.458;2023-04-27T12:57:31;9.52;;;6.90;;
11703;SDS011;5908;51.354;7.458;2023-04-27T12:59:58;8.07;;;6.25;;
11703;SDS011;5908;51.354;7.458;2023-04-27T13:02:25;6.60;;;5.40;;
11703;SDS011;5908;51.354;7.458;2023-04-27T13:04:52;9.23;;;5.82;;
11703;SDS011;5908;51.354;7.458;2023-04-27T13:07:19;7.03;;;5.35;;
11703;SDS011;5908;51.354;7.458;2023-04-27T13:09:46;7.57;;;5.35;;
11703;SDS011;5908;51.354;7.458;2023-04-27T13:12:12;7.38;;;5.55;;
11703;SDS011;5908;51.354;7.458;2023-04-27T13:14:41;7.03;;;5.20;;
11703;SDS011;5908;51.354;7.458;2023-04-27T13:17:10;8.30;;;5.93;;
11703;SDS011;5908;51.354;7.458;2023-04-27T13:19:36;7.60;;;5.57;;
11703;SDS011;5908;51.354;7.458;2023-04-27T13:22:03;6.88;;;5.60;;
11703;SDS011;5908;51.354;7.458;2023-04-27T13:24:33;7.82;;;6.05;;
11703;SDS011;5908;51.354;7.458;2023-04-27T13:27:00;8.68;;;5.32;;
11703;SDS011;5908;51.354;7.458;2023-04-27T13:29:27;10.80;;;5.70;;
11703;SDS011;5908;51.354;7.458;2023-04-27T13:31:55;11.32;;;5.47;;
11703;SDS011;5908;51.354;7.458;2023-04-27T13:34:22;10.25;;;6.20;;
11703;SDS011;5908;51.354;7.458;2023-04-27T13:36:49;8.82;;;6.30;;
11703;SDS011;5908;51.354;7.458;2023-04-27T13:39:16;11.80;;;6.93;;
11703;SDS011;5908;51.354;7.458;2023-04-27T13:41:43;9.50;;;6.53;;
11703;SDS011;5908;51.354;7.458;2023-04-27T13:44:10;8.32;;;6.25;;
11703;SDS011;5908;51.354;7.458;2023-04-27T13:46:37;8.80;;;5.85;;
11703;SDS011;5908;51.354;7.458;2023-04-27T13:49:05;8.10;;;5.80;;
11703;SDS011;5908;51.354;7.458;2023-04-27T13:51:31;8.07;;;5.93;;
11703;SDS011;5908;51.354;7.458;2023-04-27T13:53:58;10.40;;;6.45;;
11703;SDS011;5908;51.354;7.458;2023-04-27T13:56:25;9.50;;;6.47;;
11703;SDS011;5908;51.354;7.458;2023-04-27T13:58:52;11.20;;;6.50;;
11703;SDS011;5908;51.354;7.458;2023-04-27T14:01:19;9.25;;;7.13;;
11703;SDS011;5908;51.354;7.458;2023-04-27T14:03:46;9.20;;;6.35;;
11703;SDS011;5908;51.354;7.458;2023-04-27T14:06:14;7.00;;;5.90;;
11703;SDS011;5908;51.354;7.458;2023-04-27T14:08:41;9.15;;;6.57;;
11703;SDS011;5908;51.354;7.458;2023-04-27T14:11:10;10.10;;;6.53;;
11703;SDS011;5908;51.354;7.458;2023-04-27T14:13:37;18.40;;;13.20;;
11703;SDS011;5908;51.354;7.458;2023-04-27T14:16:04;8.85;;;6.07;;
11703;SDS011;5908;51.354;7.458;2023-04-27T14:18:31;7.45;;;6.07;;
11703;SDS011;5908;51.354;7.458;2023-04-27T14:20:58;8.52;;;6.13;;
11703;SDS011;5908;51.354;7.458;2023-04-27T14:23:26;8.23;;;5.85;;
11703;SDS011;5908;51.354;7.458;2023-04-27T14:25:54;8.00;;;5.90;;
11703;SDS011;5908;51.354;7.458;2023-04-27T14:28:21;8.82;;;6.53;;
11703;SDS011;5908;51.354;7.458;2023-04-27T14:30:48;9.05;;;6.57;;
11703;SDS011;5908;51.354;7.458;2023-04-27T14:33:15;7.95;;;5.95;;
11703;SDS011;5908;51.354;7.458;2023-04-27T14:35:41;8.98;;;6.18;;
11703;SDS011;5908;51.354;7.458;2023-04-27T14:38:08;9.63;;;7.22;;
11703;SDS011;5908;51.354;7.458;2023-04-27T14:40:36;16.13;;;11.75;;
11703;SDS011;5908;51.354;7.458;2023-04-27T14:43:03;11.32;;;6.90;;
11703;SDS011;5908;51.354;7.458;2023-04-27T14:45:30;9.63;;;6.50;;
11703;SDS011;5908;51.354;7.458;2023-04-27T14:47:57;8.35;;;7.05;;
11703;SDS011;5908;51.354;7.458;2023-04-27T14:50:24;9.50;;;6.85;;
11703;SDS011;5908;51.354;7.458;2023-04-27T14:52:50;8.80;;;6.80;;
11703;SDS011;5908;51.354;7.458;2023-04-27T14:55:22;7.80;;;6.63;;